Laukaa, Finland
Kieli:  Suomi
CurCond
Päivitetty20/09/2021 01:08 
 

Lähistön Lentoasemien Säätiloja:

 

EFJY - Jyvaskyla (mil/C,) Finland
Etäisyys Sääasemalta: PKo 21km
Päivitetty: 20/09/2021 00:50
Pilvistä
Pilvistä
 Tuulen suunta I
Tuuli: I 13 km/h
Lämpötila: 6°C
Tuulen purevuus: 3°C
Kastepiste: 1°C
Ilmankosteus: 71%
Ilmanpaine: 1030 hPa
Pilvisyys: Pilvistä
Näkyvyys: 10 km
Pilvisyystiedot: Pilvistä 884 m
2021/09/19 21:50 EFJY 192150Z AUTO 10007KT 9999 OVC029 06/01 Q1030
EFHA - Halli (fin-Afb), Finland
Etäisyys Sääasemalta: Lo 56km
Päivitetty: 20/09/2021 00:50
Pilvistä
Pilvistä
 Tuulen suunta I
Tuuli: I 13 km/h
Lämpötila: 6°C
Tuulen purevuus: 3°C
Kastepiste: 1°C
Ilmankosteus: 71%
Ilmanpaine: 1029 hPa
Pilvisyys: Pilvistä
Näkyvyys: 10 km
Pilvisyystiedot: Pilvistä 823 m
2021/09/19 21:50 EFHA 192150Z AUTO 09007KT 060V120 9999 OVC027 06/01 Q1029
EFMI - Mikkeli, Finland
Etäisyys Sääasemalta: IKa 105km
Päivitetty: 20/09/2021 00:50
Pilvistä
Pilvistä
 Tuulen suunta I
Tuuli: I 11 km/h
Lämpötila: 6°C
Tuulen purevuus: 4°C
Kastepiste: 1°C
Ilmankosteus: 71%
Ilmanpaine: 1030 hPa
Pilvisyys: Pilvistä
Näkyvyys: 10 km
Pilvisyystiedot: Pilvistä 884 m
2021/09/19 21:50 EFMI 192150Z AUTO 09006KT 9999 OVC029 06/01 Q1030
 
EFTP - Tampere/Pirkkala, Finland
Etäisyys Sääasemalta: Lo 135km
Päivitetty: 20/09/2021 00:50
Pilvistä
Pilvistä
 Tuulen suunta I
Tuuli: I 11 km/h
Lämpötila: 6°C
Tuulen purevuus: 4°C
Kastepiste: 1°C
Ilmankosteus: 71%
Ilmanpaine: 1029 hPa
Pilvisyys: Pilvistä
Näkyvyys: 10 km
Pilvisyystiedot: Pilvistä 792 m
2021/09/19 21:50 EFTP 192150Z AUTO 09006KT 9999 OVC026 06/01 Q1029
EFKU - Kuopio (mil/Civ), Finland
Etäisyys Sääasemalta: Ko 146km
Päivitetty: 20/09/2021 00:50
Pilvistä
Pilvistä
 Tuulen suunta I
Tuuli: I 19 km/h
Lämpötila: 6°C
Tuulen purevuus: 3°C
Kastepiste: 0°C
Ilmankosteus: 66%
Ilmanpaine: 1032 hPa
Pilvisyys: Pilvistä
Näkyvyys: 10 km
Pilvisyystiedot: Pilvistä 914 m
2021/09/19 21:50 EFKU 192150Z AUTO 10010KT 070V130 9999 OVC030 06/00 Q1032
EFSI - Seinajoki-Ilmajo, Finland
Etäisyys Sääasemalta: LLu 149km
Päivitetty: 20/09/2021 00:50
Pilvistä
Pilvistä
 Tuulen suunta IKo
Tuuli: IKo 6 km/h
Lämpötila: 5°C
Kastepiste: 2°C
Ilmankosteus: 81%
Ilmanpaine: 1030 hPa
Pilvisyys: Pilvistä
Näkyvyys: 10 km
Pilvisyystiedot: Pilvistä 1067 m
2021/09/19 21:50 EFSI 192150Z AUTO 06003KT 020V080 9999 OVC035 05/02 Q1030